Braham, Minnesota
Current Conditions -  °F | °C
As of 9:55 PM on Sunday 23 Nov 2014 (Local Time) from KROS Reporting Station
Light Rain Light Rain  
Wind Chill: 32°   Ceiling: 2000
Heat Index: 36°   Visibility: 10mi
Dew Point: 35°   Wind: 5mph
Humidity: 97%   Direction: 310°NW
Pressure: 29.34"   Gusts: NA
Location:  45.72°N, 93.17°W
Report Text: KROS 240355Z AUTO 31004KT 10SM -RA OVC020 02/02 A2934 RMK AO2 P0001 T00220017
Loading
Personal Weather Stations






























Interactive Weather Map New forecast layout! Learn more

10-Day Weather Forecast

Advertisements
Track Severe Weather on mobile